sensor_id;sensor_type;location;lat;lon;timestamp;pressure;altitude;pressure_sealevel;temperature;humidity
72961;BME280;61141;46.204;19.774;2022-08-21T00:00:38;99909.78;;;20.45;85.61
72961;BME280;61141;46.204;19.774;2022-08-21T00:03:46;99897.88;;;20.45;85.94
72961;BME280;61141;46.204;19.774;2022-08-21T00:06:50;99896.78;;;20.42;85.67
72961;BME280;61141;46.204;19.774;2022-08-21T00:09:54;99888.44;;;20.42;85.56
72961;BME280;61141;46.204;19.774;2022-08-21T00:12:56;99873.63;;;20.33;85.96
72961;BME280;61141;46.204;19.774;2022-08-21T00:16:00;99882.53;;;20.40;85.81
72961;BME280;61141;46.204;19.774;2022-08-21T00:19:04;99870.16;;;20.41;85.91
72961;BME280;61141;46.204;19.774;2022-08-21T00:22:08;99867.06;;;20.39;85.95
72961;BME280;61141;46.204;19.774;2022-08-21T00:25:11;99864.59;;;20.41;86.06
72961;BME280;61141;46.204;19.774;2022-08-21T00:28:15;99861.84;;;20.29;86.39
72961;BME280;61141;46.204;19.774;2022-08-21T00:31:18;99867.06;;;20.39;86.36
72961;BME280;61141;46.204;19.774;2022-08-21T00:34:22;99852.81;;;20.37;85.87
72961;BME280;61141;46.204;19.774;2022-08-21T00:37:24;99863.81;;;20.41;86.09
72961;BME280;61141;46.204;19.774;2022-08-21T00:40:48;99863.81;;;20.41;85.92
72961;BME280;61141;46.204;19.774;2022-08-21T00:43:51;99849.37;;;20.33;86.06
72961;BME280;61141;46.204;19.774;2022-08-21T00:46:54;99860.38;;;20.37;86.47
72961;BME280;61141;46.204;19.774;2022-08-21T00:49:57;99843.22;;;20.38;86.35
72961;BME280;61141;46.204;19.774;2022-08-21T00:53:02;99845.78;;;20.45;86.51
72961;BME280;61141;46.204;19.774;2022-08-21T00:56:06;99853.25;;;20.48;86.97
72961;BME280;61141;46.204;19.774;2022-08-21T00:59:12;99852.69;;;20.41;88.29
72961;BME280;61141;46.204;19.774;2022-08-21T01:02:16;99850.81;;;20.38;88.23
72961;BME280;61141;46.204;19.774;2022-08-21T01:05:19;99832.47;;;20.28;88.38
72961;BME280;61141;46.204;19.774;2022-08-21T01:08:23;99836.13;;;20.37;88.64
72961;BME280;61141;46.204;19.774;2022-08-21T01:11:26;99850.03;;;20.37;89.06
72961;BME280;61141;46.204;19.774;2022-08-21T01:14:30;99836.19;;;20.46;88.23
72961;BME280;61141;46.204;19.774;2022-08-21T01:17:33;99846.59;;;20.33;89.15
72961;BME280;61141;46.204;19.774;2022-08-21T01:20:38;99856.13;;;20.45;88.45
72961;BME280;61141;46.204;19.774;2022-08-21T01:23:48;99858.91;;;20.45;88.50
72961;BME280;61141;46.204;19.774;2022-08-21T01:26:52;99835.81;;;20.10;89.77
72961;BME280;61141;46.204;19.774;2022-08-21T01:30:23;99854.72;;;20.40;88.89
72961;BME280;61141;46.204;19.774;2022-08-21T01:33:27;99847.91;;;20.41;88.24
72961;BME280;61141;46.204;19.774;2022-08-21T01:36:30;99835.88;;;20.44;87.71
72961;BME280;61141;46.204;19.774;2022-08-21T01:39:34;99835.75;;;20.48;88.04
72961;BME280;61141;46.204;19.774;2022-08-21T01:42:38;99833.87;;;20.45;88.10
72961;BME280;61141;46.204;19.774;2022-08-21T01:45:40;99831.88;;;20.45;87.82
72961;BME280;61141;46.204;19.774;2022-08-21T01:48:43;99830.69;;;20.21;89.15
72961;BME280;61141;46.204;19.774;2022-08-21T01:51:47;99822.91;;;20.04;90.15
72961;BME280;61141;46.204;19.774;2022-08-21T01:54:50;99825.53;;;20.20;89.31
72961;BME280;61141;46.204;19.774;2022-08-21T01:57:58;99829.53;;;20.19;88.84
72961;BME280;61141;46.204;19.774;2022-08-21T02:01:02;99804.44;;;20.10;88.93
72961;BME280;61141;46.204;19.774;2022-08-21T02:04:07;99826.22;;;20.11;89.25
72961;BME280;61141;46.204;19.774;2022-08-21T02:07:10;99832.78;;;20.17;88.24
72961;BME280;61141;46.204;19.774;2022-08-21T02:10:19;99826.78;;;20.06;88.65
72961;BME280;61141;46.204;19.774;2022-08-21T02:13:21;99837.22;;;20.15;88.59
72961;BME280;61141;46.204;19.774;2022-08-21T02:16:25;99833.78;;;20.11;88.90
72961;BME280;61141;46.204;19.774;2022-08-21T02:19:27;99826.00;;;20.06;88.37
72961;BME280;61141;46.204;19.774;2022-08-21T02:22:40;99833.78;;;19.98;89.29
72961;BME280;61141;46.204;19.774;2022-08-21T02:25:43;99837.59;;;20.04;88.70
72961;BME280;61141;46.204;19.774;2022-08-21T02:28:48;99841.13;;;19.92;89.24
72961;BME280;61141;46.204;19.774;2022-08-21T02:31:51;99839.22;;;19.64;89.90
72961;BME280;61141;46.204;19.774;2022-08-21T02:34:55;99838.22;;;19.70;89.05
72961;BME280;61141;46.204;19.774;2022-08-21T02:38:00;99824.09;;;19.77;88.26
72961;BME280;61141;46.204;19.774;2022-08-21T02:41:10;99844.56;;;19.83;88.46
72961;BME280;61141;46.204;19.774;2022-08-21T02:44:14;99833.81;;;19.85;87.86
72961;BME280;61141;46.204;19.774;2022-08-21T02:47:17;99835.78;;;19.98;87.38
72961;BME280;61141;46.204;19.774;2022-08-21T02:50:25;99837.12;;;19.80;87.78
72961;BME280;61141;46.204;19.774;2022-08-21T02:53:30;99834.34;;;19.80;87.66
72961;BME280;61141;46.204;19.774;2022-08-21T02:56:33;99831.25;;;19.91;87.56
72961;BME280;61141;46.204;19.774;2022-08-21T02:59:37;99839.59;;;19.91;87.42
72961;BME280;61141;46.204;19.774;2022-08-21T03:02:40;99840.56;;;19.97;87.16
72961;BME280;61141;46.204;19.774;2022-08-21T03:05:44;99830.69;;;19.96;87.66
72961;BME280;61141;46.204;19.774;2022-08-21T03:08:47;99827.69;;;19.90;88.11
72961;BME280;61141;46.204;19.774;2022-08-21T03:11:51;99829.25;;;19.79;87.78
72961;BME280;61141;46.204;19.774;2022-08-21T03:14:54;99831.69;;;19.89;88.00
72961;BME280;61141;46.204;19.774;2022-08-21T03:17:57;99833.34;;;19.74;88.14
72961;BME280;61141;46.204;19.774;2022-08-21T03:21:00;99820.53;;;19.52;88.95
72961;BME280;61141;46.204;19.774;2022-08-21T03:24:03;99825.44;;;19.60;88.58
72961;BME280;61141;46.204;19.774;2022-08-21T03:27:08;99829.75;;;19.49;88.93
72961;BME280;61141;46.204;19.774;2022-08-21T03:30:11;99831.34;;;19.33;89.83
72961;BME280;61141;46.204;19.774;2022-08-21T03:33:14;99828.16;;;19.35;89.52
72961;BME280;61141;46.204;19.774;2022-08-21T03:36:17;99834.41;;;19.39;89.46
72961;BME280;61141;46.204;19.774;2022-08-21T03:39:20;99829.31;;;19.50;89.44
72961;BME280;61141;46.204;19.774;2022-08-21T03:42:23;99827.44;;;19.60;88.21
72961;BME280;61141;46.204;19.774;2022-08-21T03:45:26;99816.97;;;19.64;87.86
72961;BME280;61141;46.204;19.774;2022-08-21T03:48:29;99811.03;;;19.36;88.25
72961;BME280;61141;46.204;19.774;2022-08-21T03:51:32;99830.97;;;19.48;88.61
72961;BME280;61141;46.204;19.774;2022-08-21T03:54:36;99821.56;;;19.16;89.50
72961;BME280;61141;46.204;19.774;2022-08-21T03:57:39;99837.09;;;19.43;88.37
72961;BME280;61141;46.204;19.774;2022-08-21T04:00:42;99827.63;;;19.40;89.16
72961;BME280;61141;46.204;19.774;2022-08-21T04:03:45;99824.44;;;19.54;88.58
72961;BME280;61141;46.204;19.774;2022-08-21T04:06:48;99835.22;;;19.65;88.53
72961;BME280;61141;46.204;19.774;2022-08-21T04:09:52;99836.44;;;19.51;88.58
72961;BME280;61141;46.204;19.774;2022-08-21T04:12:55;99840.09;;;19.61;87.70
72961;BME280;61141;46.204;19.774;2022-08-21T04:15:58;99826.09;;;19.64;87.48
72961;BME280;61141;46.204;19.774;2022-08-21T04:19:01;99832.78;;;19.67;87.60
72961;BME280;61141;46.204;19.774;2022-08-21T04:22:04;99836.56;;;19.73;87.68
72961;BME280;61141;46.204;19.774;2022-08-21T04:25:07;99840.69;;;19.68;87.78
72961;BME280;61141;46.204;19.774;2022-08-21T04:28:10;99854.09;;;19.45;88.32
72961;BME280;61141;46.204;19.774;2022-08-21T04:31:13;99847.78;;;19.44;88.51
72961;BME280;61141;46.204;19.774;2022-08-21T04:34:16;99841.53;;;19.40;88.45
72961;BME280;61141;46.204;19.774;2022-08-21T04:37:19;99849.84;;;19.40;89.12
72961;BME280;61141;46.204;19.774;2022-08-21T04:40:24;99847.78;;;19.28;88.99
72961;BME280;61141;46.204;19.774;2022-08-21T04:43:27;99845.16;;;19.37;88.39
72961;BME280;61141;46.204;19.774;2022-08-21T04:46:30;99835.63;;;19.38;88.56
72961;BME280;61141;46.204;19.774;2022-08-21T04:49:33;99840.37;;;19.37;88.17
72961;BME280;61141;46.204;19.774;2022-08-21T04:52:37;99854.69;;;19.52;88.07
72961;BME280;61141;46.204;19.774;2022-08-21T04:55:41;99855.44;;;19.53;87.54
72961;BME280;61141;46.204;19.774;2022-08-21T04:58:44;99852.22;;;19.54;88.19
72961;BME280;61141;46.204;19.774;2022-08-21T05:01:47;99858.34;;;19.49;88.05
72961;BME280;61141;46.204;19.774;2022-08-21T05:04:52;99857.22;;;19.59;87.43
72961;BME280;61141;46.204;19.774;2022-08-21T05:07:59;99859.03;;;19.66;87.31
72961;BME280;61141;46.204;19.774;2022-08-21T05:11:04;99866.44;;;19.56;87.44
72961;BME280;61141;46.204;19.774;2022-08-21T05:14:07;99862.41;;;19.45;87.93
72961;BME280;61141;46.204;19.774;2022-08-21T05:17:10;99862.56;;;19.54;87.63
72961;BME280;61141;46.204;19.774;2022-08-21T05:20:13;99868.66;;;19.49;88.96
72961;BME280;61141;46.204;19.774;2022-08-21T05:23:17;99866.75;;;19.46;88.45
72961;BME280;61141;46.204;19.774;2022-08-21T05:26:20;99850.53;;;19.15;89.13
72961;BME280;61141;46.204;19.774;2022-08-21T05:29:23;99861.78;;;19.24;89.10
72961;BME280;61141;46.204;19.774;2022-08-21T05:32:26;99864.22;;;19.22;89.46
72961;BME280;61141;46.204;19.774;2022-08-21T05:35:31;99862.28;;;19.35;88.69
72961;BME280;61141;46.204;19.774;2022-08-21T05:38:34;99851.59;;;19.34;87.96
72961;BME280;61141;46.204;19.774;2022-08-21T05:41:37;99849.50;;;19.09;89.29
72961;BME280;61141;46.204;19.774;2022-08-21T05:44:40;99846.97;;;19.15;88.59
72961;BME280;61141;46.204;19.774;2022-08-21T05:47:45;99864.09;;;19.13;89.12
72961;BME280;61141;46.204;19.774;2022-08-21T05:50:49;99854.63;;;19.11;89.47
72961;BME280;61141;46.204;19.774;2022-08-21T05:53:53;99859.13;;;19.33;88.64
72961;BME280;61141;46.204;19.774;2022-08-21T05:56:56;99861.16;;;19.33;88.93
72961;BME280;61141;46.204;19.774;2022-08-21T05:59:59;99861.03;;;19.36;89.48
72961;BME280;61141;46.204;19.774;2022-08-21T06:03:03;99851.22;;;19.48;88.45
72961;BME280;61141;46.204;19.774;2022-08-21T06:06:06;99852.47;;;19.72;87.23
72961;BME280;61141;46.204;19.774;2022-08-21T06:09:09;99859.34;;;19.68;88.10
72961;BME280;61141;46.204;19.774;2022-08-21T06:12:12;99859.59;;;19.86;87.22
72961;BME280;61141;46.204;19.774;2022-08-21T06:15:15;99861.16;;;19.74;87.69
72961;BME280;61141;46.204;19.774;2022-08-21T06:18:18;99859.22;;;19.59;87.80
72961;BME280;61141;46.204;19.774;2022-08-21T06:21:21;99839.22;;;19.64;87.12
72961;BME280;61141;46.204;19.774;2022-08-21T06:24:25;99856.34;;;19.75;87.42
72961;BME280;61141;46.204;19.774;2022-08-21T06:27:27;99850.00;;;19.62;87.68
72961;BME280;61141;46.204;19.774;2022-08-21T06:30:31;99865.00;;;19.52;88.07
72961;BME280;61141;46.204;19.774;2022-08-21T06:33:34;99866.66;;;19.49;88.89
72961;BME280;61141;46.204;19.774;2022-08-21T06:36:39;99869.50;;;19.74;88.25
72961;BME280;61141;46.204;19.774;2022-08-21T06:39:42;99868.34;;;19.72;87.49
72961;BME280;61141;46.204;19.774;2022-08-21T06:42:47;99862.81;;;19.84;87.23
72961;BME280;61141;46.204;19.774;2022-08-21T06:45:50;99861.38;;;19.92;86.79
72961;BME280;61141;46.204;19.774;2022-08-21T06:48:53;99860.28;;;19.90;87.03
72961;BME280;61141;46.204;19.774;2022-08-21T06:51:56;99857.94;;;20.01;86.80
72961;BME280;61141;46.204;19.774;2022-08-21T06:54:59;99860.59;;;19.92;86.54
72961;BME280;61141;46.204;19.774;2022-08-21T06:58:03;99868.50;;;19.93;86.87
72961;BME280;61141;46.204;19.774;2022-08-21T07:01:06;99861.81;;;19.78;87.86
72961;BME280;61141;46.204;19.774;2022-08-21T07:04:10;99864.84;;;19.97;87.78
72961;BME280;61141;46.204;19.774;2022-08-21T07:07:13;99867.84;;;20.02;87.28
72961;BME280;61141;46.204;19.774;2022-08-21T07:10:15;99869.25;;;19.94;86.19
72961;BME280;61141;46.204;19.774;2022-08-21T07:13:24;99873.94;;;20.22;85.56
72961;BME280;61141;46.204;19.774;2022-08-21T07:16:27;99871.50;;;20.24;85.36
72961;BME280;61141;46.204;19.774;2022-08-21T07:19:30;99864.69;;;19.75;88.07
72961;BME280;61141;46.204;19.774;2022-08-21T07:22:33;99876.41;;;20.08;87.17
72961;BME280;61141;46.204;19.774;2022-08-21T07:25:38;99874.81;;;19.94;87.84
72961;BME280;61141;46.204;19.774;2022-08-21T07:28:41;99869.25;;;20.19;86.65
72961;BME280;61141;46.204;19.774;2022-08-21T07:31:44;99870.63;;;20.02;85.88
72961;BME280;61141;46.204;19.774;2022-08-21T07:34:47;99875.94;;;19.84;87.01
72961;BME280;61141;46.204;19.774;2022-08-21T07:37:50;99882.50;;;20.03;86.27
72961;BME280;61141;46.204;19.774;2022-08-21T07:40:55;99888.19;;;20.24;85.87
72961;BME280;61141;46.204;19.774;2022-08-21T07:43:59;99880.72;;;20.46;85.28
72961;BME280;61141;46.204;19.774;2022-08-21T07:47:02;99887.09;;;20.34;85.92
72961;BME280;61141;46.204;19.774;2022-08-21T07:50:06;99869.09;;;20.26;85.78
72961;BME280;61141;46.204;19.774;2022-08-21T07:53:09;99866.28;;;20.52;84.78
72961;BME280;61141;46.204;19.774;2022-08-21T07:56:12;99882.31;;;20.35;84.24
72961;BME280;61141;46.204;19.774;2022-08-21T07:59:15;99881.25;;;20.67;84.32
72961;BME280;61141;46.204;19.774;2022-08-21T08:02:26;99871.47;;;20.62;84.50
72961;BME280;61141;46.204;19.774;2022-08-21T08:05:30;99881.25;;;20.67;85.09
72961;BME280;61141;46.204;19.774;2022-08-21T08:08:33;99882.28;;;20.47;84.76
72961;BME280;61141;46.204;19.774;2022-08-21T08:11:39;99885.91;;;20.70;84.60
72961;BME280;61141;46.204;19.774;2022-08-21T08:14:43;99877.66;;;20.79;83.75
72961;BME280;61141;46.204;19.774;2022-08-21T08:17:46;99877.38;;;20.64;85.16
72961;BME280;61141;46.204;19.774;2022-08-21T08:20:49;99873.50;;;20.49;85.61
72961;BME280;61141;46.204;19.774;2022-08-21T08:23:52;99874.94;;;20.54;85.35
72961;BME280;61141;46.204;19.774;2022-08-21T08:26:54;99877.38;;;20.64;84.33
72961;BME280;61141;46.204;19.774;2022-08-21T08:29:59;99869.63;;;20.81;84.34
72961;BME280;61141;46.204;19.774;2022-08-21T08:33:02;99872.00;;;21.04;82.88
72961;BME280;61141;46.204;19.774;2022-08-21T08:36:05;99870.44;;;21.03;84.35
72961;BME280;61141;46.204;19.774;2022-08-21T08:39:15;99874.03;;;20.91;83.73
72961;BME280;61141;46.204;19.774;2022-08-21T08:42:31;99872.78;;;21.04;84.26
72961;BME280;61141;46.204;19.774;2022-08-21T08:45:37;99869.47;;;21.10;83.58
72961;BME280;61141;46.204;19.774;2022-08-21T08:52:03;99877.41;;;20.86;84.05
72961;BME280;61141;46.204;19.774;2022-08-21T08:55:21;99879.69;;;21.00;84.07
72961;BME280;61141;46.204;19.774;2022-08-21T08:58:33;99878.47;;;21.01;85.97
72961;BME280;61141;46.204;19.774;2022-08-21T09:01:36;99873.28;;;20.90;85.38
72961;BME280;61141;46.204;19.774;2022-08-21T09:04:41;99875.47;;;20.74;85.44
72961;BME280;61141;46.204;19.774;2022-08-21T09:14:06;99867.59;;;20.60;86.74
72961;BME280;61141;46.204;19.774;2022-08-21T09:27:28;99866.34;;;20.61;86.02
72961;BME280;61141;46.204;19.774;2022-08-21T09:30:33;99867.00;;;20.65;85.85
72961;BME280;61141;46.204;19.774;2022-08-21T09:33:35;99865.22;;;20.71;86.57
72961;BME280;61141;46.204;19.774;2022-08-21T09:39:44;99850.53;;;20.58;86.40
72961;BME280;61141;46.204;19.774;2022-08-21T09:42:55;99848.50;;;20.71;86.53
72961;BME280;61141;46.204;19.774;2022-08-21T09:46:19;99871.47;;;20.49;87.29
72961;BME280;61141;46.204;19.774;2022-08-21T09:49:30;99858.34;;;20.63;87.43
72961;BME280;61141;46.204;19.774;2022-08-21T09:52:34;99858.75;;;20.74;87.26
72961;BME280;61141;46.204;19.774;2022-08-21T09:55:49;99866.28;;;20.86;86.68
72961;BME280;61141;46.204;19.774;2022-08-21T09:59:33;99859.69;;;20.92;86.08
72961;BME280;61141;46.204;19.774;2022-08-21T10:02:38;99861.69;;;20.92;85.01
72961;BME280;61141;46.204;19.774;2022-08-21T10:06:00;99859.56;;;20.96;85.68
72961;BME280;61141;46.204;19.774;2022-08-21T10:09:09;99865.16;;;20.83;86.43
72961;BME280;61141;46.204;19.774;2022-08-21T10:12:23;99859.72;;;20.80;86.33
72961;BME280;61141;46.204;19.774;2022-08-21T10:15:38;99861.44;;;20.99;86.64
72961;BME280;61141;46.204;19.774;2022-08-21T10:19:01;99863.69;;;20.91;86.26
72961;BME280;61141;46.204;19.774;2022-08-21T10:22:14;99851.66;;;20.94;86.48
72961;BME280;61141;46.204;19.774;2022-08-21T10:25:31;99870.22;;;21.10;85.82
72961;BME280;61141;46.204;19.774;2022-08-21T10:28:44;99862.72;;;21.20;84.40
72961;BME280;61141;46.204;19.774;2022-08-21T10:32:08;99857.25;;;21.16;85.57
72961;BME280;61141;46.204;19.774;2022-08-21T10:35:31;99852.34;;;21.20;85.10
72961;BME280;61141;46.204;19.774;2022-08-21T10:45:31;99855.84;;;21.33;83.49
72961;BME280;61141;46.204;19.774;2022-08-21T10:48:43;99837.00;;;21.37;83.56
72961;BME280;61141;46.204;19.774;2022-08-21T10:52:01;99854.34;;;21.20;84.50
72961;BME280;61141;46.204;19.774;2022-08-21T10:55:15;99858.25;;;21.22;85.09
72961;BME280;61141;46.204;19.774;2022-08-21T10:58:33;99827.44;;;21.04;85.88
72961;BME280;61141;46.204;19.774;2022-08-21T11:01:56;99840.91;;;21.18;85.47
72961;BME280;61141;46.204;19.774;2022-08-21T11:08:43;99838.81;;;21.31;86.53
72961;BME280;61141;46.204;19.774;2022-08-21T11:11:57;99836.34;;;20.99;87.54
72961;BME280;61141;46.204;19.774;2022-08-21T11:18:34;99838.75;;;21.22;86.44
72961;BME280;61141;46.204;19.774;2022-08-21T11:21:50;99818.13;;;20.98;85.88
72961;BME280;61141;46.204;19.774;2022-08-21T11:28:06;99825.72;;;21.19;87.52
72961;BME280;61141;46.204;19.774;2022-08-21T11:34:33;99836.62;;;21.26;87.35
72961;BME280;61141;46.204;19.774;2022-08-21T11:44:23;99823.78;;;21.07;86.20
72961;BME280;61141;46.204;19.774;2022-08-21T11:47:40;99826.31;;;21.14;86.17
72961;BME280;61141;46.204;19.774;2022-08-21T11:50:55;99818.72;;;21.15;86.25
72961;BME280;61141;46.204;19.774;2022-08-21T11:57:49;99822.59;;;20.95;87.51
72961;BME280;61141;46.204;19.774;2022-08-21T12:00:58;99819.78;;;20.74;88.78
72961;BME280;61141;46.204;19.774;2022-08-21T12:04:08;99823.91;;;20.91;88.40
72961;BME280;61141;46.204;19.774;2022-08-21T12:07:16;99813.41;;;21.07;88.02
72961;BME280;61141;46.204;19.774;2022-08-21T12:10:35;99815.66;;;21.00;87.83
72961;BME280;61141;46.204;19.774;2022-08-21T12:13:51;99809.69;;;20.89;87.74
72961;BME280;61141;46.204;19.774;2022-08-21T12:17:04;99816.00;;;20.68;89.31
72961;BME280;61141;46.204;19.774;2022-08-21T12:23:47;99801.31;;;21.23;87.78
72961;BME280;61141;46.204;19.774;2022-08-21T12:27:12;99799.88;;;21.49;86.26
72961;BME280;61141;46.204;19.774;2022-08-21T12:33:35;99792.72;;;21.39;86.75
72961;BME280;61141;46.204;19.774;2022-08-21T12:36:53;99785.75;;;21.13;87.68
72961;BME280;61141;46.204;19.774;2022-08-21T12:39:59;99789.22;;;21.04;87.73
72961;BME280;61141;46.204;19.774;2022-08-21T12:43:03;99787.78;;;21.00;88.19
72961;BME280;61141;46.204;19.774;2022-08-21T12:46:22;99774.19;;;21.02;87.65
72961;BME280;61141;46.204;19.774;2022-08-21T12:49:35;99784.62;;;21.32;86.76
72961;BME280;61141;46.204;19.774;2022-08-21T12:52:56;99768.28;;;21.00;87.76
72961;BME280;61141;46.204;19.774;2022-08-21T12:56:08;99791.44;;;21.31;87.38
72961;BME280;61141;46.204;19.774;2022-08-21T12:59:12;99788.09;;;21.15;87.59
72961;BME280;61141;46.204;19.774;2022-08-21T13:02:18;99783.97;;;20.85;88.23
72961;BME280;61141;46.204;19.774;2022-08-21T13:05:34;99786.81;;;20.94;89.11
72961;BME280;61141;46.204;19.774;2022-08-21T13:08:38;99780.69;;;21.21;88.30
72961;BME280;61141;46.204;19.774;2022-08-21T13:11:48;99789.06;;;21.21;87.78
72961;BME280;61141;46.204;19.774;2022-08-21T13:14:57;99774.72;;;21.31;87.25
72961;BME280;61141;46.204;19.774;2022-08-21T13:18:05;99784.91;;;21.25;87.17
72961;BME280;61141;46.204;19.774;2022-08-21T13:21:14;99782.00;;;21.07;88.65
72961;BME280;61141;46.204;19.774;2022-08-21T13:24:36;99759.13;;;20.90;89.30
72961;BME280;61141;46.204;19.774;2022-08-21T13:28:00;99781.50;;;21.30;87.70
72961;BME280;61141;46.204;19.774;2022-08-21T13:31:08;99782.88;;;21.26;87.71
72961;BME280;61141;46.204;19.774;2022-08-21T13:34:13;99781.31;;;21.25;87.79
72961;BME280;61141;46.204;19.774;2022-08-21T13:37:17;99780.78;;;21.39;86.89
72961;BME280;61141;46.204;19.774;2022-08-21T13:40:27;99786.41;;;21.48;87.61
72961;BME280;61141;46.204;19.774;2022-08-21T13:43:34;99785.13;;;21.71;86.66
72961;BME280;61141;46.204;19.774;2022-08-21T13:46:37;99787.78;;;21.43;86.85
72961;BME280;61141;46.204;19.774;2022-08-21T13:49:44;99782.34;;;21.71;86.46
72961;BME280;61141;46.204;19.774;2022-08-21T13:53:04;99781.28;;;21.77;85.85
72961;BME280;61141;46.204;19.774;2022-08-21T13:56:07;99785.41;;;21.94;85.12
72961;BME280;61141;46.204;19.774;2022-08-21T13:59:11;99785.31;;;21.85;85.01
72961;BME280;61141;46.204;19.774;2022-08-21T14:02:24;99775.09;;;21.82;84.98
72961;BME280;61141;46.204;19.774;2022-08-21T14:05:29;99784.25;;;21.83;84.34
72961;BME280;61141;46.204;19.774;2022-08-21T14:08:36;99779.56;;;21.71;83.80
72961;BME280;61141;46.204;19.774;2022-08-21T14:11:40;99767.44;;;21.64;87.13
72961;BME280;61141;46.204;19.774;2022-08-21T14:14:43;99770.56;;;22.06;85.01
72961;BME280;61141;46.204;19.774;2022-08-21T14:17:47;99758.34;;;22.40;83.80
72961;BME280;61141;46.204;19.774;2022-08-21T14:20:50;99758.53;;;22.37;83.54
72961;BME280;61141;46.204;19.774;2022-08-21T14:24:11;99770.59;;;21.76;83.35
72961;BME280;61141;46.204;19.774;2022-08-21T14:27:17;99765.13;;;22.03;82.67
72961;BME280;61141;46.204;19.774;2022-08-21T14:30:27;99750.28;;;22.24;83.21
72961;BME280;61141;46.204;19.774;2022-08-21T14:33:32;99763.47;;;22.33;80.96
72961;BME280;61141;46.204;19.774;2022-08-21T14:36:35;99757.63;;;22.67;79.82
72961;BME280;61141;46.204;19.774;2022-08-21T14:39:37;99747.19;;;22.40;81.17
72961;BME280;61141;46.204;19.774;2022-08-21T14:42:46;99756.03;;;22.93;79.86
72961;BME280;61141;46.204;19.774;2022-08-21T14:45:52;99726.75;;;22.34;80.18
72961;BME280;61141;46.204;19.774;2022-08-21T14:48:55;99747.63;;;22.11;79.74
72961;BME280;61141;46.204;19.774;2022-08-21T14:51:58;99757.91;;;21.44;83.21
72961;BME280;61141;46.204;19.774;2022-08-21T14:55:01;99757.34;;;21.27;84.99
72961;BME280;61141;46.204;19.774;2022-08-21T14:58:04;99761.12;;;21.12;86.51
72961;BME280;61141;46.204;19.774;2022-08-21T15:01:09;99755.88;;;20.92;87.92
72961;BME280;61141;46.204;19.774;2022-08-21T15:04:13;99757.22;;;20.66;88.19
72961;BME280;61141;46.204;19.774;2022-08-21T15:07:16;99750.94;;;20.74;87.81
72961;BME280;61141;46.204;19.774;2022-08-21T15:10:19;99756.78;;;20.67;88.99
72961;BME280;61141;46.204;19.774;2022-08-21T15:13:22;99767.72;;;20.83;88.29
72961;BME280;61141;46.204;19.774;2022-08-21T15:16:28;99768.50;;;20.84;87.61
72961;BME280;61141;46.204;19.774;2022-08-21T15:19:33;99766.81;;;20.86;88.58
72961;BME280;61141;46.204;19.774;2022-08-21T15:22:36;99764.28;;;20.79;88.60
72961;BME280;61141;46.204;19.774;2022-08-21T15:25:41;99755.16;;;20.79;88.77
72961;BME280;61141;46.204;19.774;2022-08-21T15:28:44;99759.81;;;21.03;88.51
72961;BME280;61141;46.204;19.774;2022-08-21T15:31:53;99767.72;;;21.05;88.26
72961;BME280;61141;46.204;19.774;2022-08-21T15:34:57;99764.22;;;21.14;87.71
72961;BME280;61141;46.204;19.774;2022-08-21T15:38:00;99759.72;;;21.07;87.67
72961;BME280;61141;46.204;19.774;2022-08-21T15:41:03;99761.03;;;21.02;88.25
72961;BME280;61141;46.204;19.774;2022-08-21T15:44:09;99745.03;;;20.72;90.02
72961;BME280;61141;46.204;19.774;2022-08-21T15:47:22;99759.56;;;20.89;87.50
72961;BME280;61141;46.204;19.774;2022-08-21T15:50:28;99753.59;;;20.78;87.33
72961;BME280;61141;46.204;19.774;2022-08-21T15:53:31;99754.44;;;20.87;87.39
72961;BME280;61141;46.204;19.774;2022-08-21T15:56:39;99747.31;;;20.65;87.97
72961;BME280;61141;46.204;19.774;2022-08-21T15:59:49;99755.94;;;20.79;87.49
72961;BME280;61141;46.204;19.774;2022-08-21T16:02:55;99751.66;;;20.66;88.29
72961;BME280;61141;46.204;19.774;2022-08-21T16:05:59;99739.69;;;20.78;88.62
72961;BME280;61141;46.204;19.774;2022-08-21T16:09:03;99746.25;;;20.71;89.36
72961;BME280;61141;46.204;19.774;2022-08-21T16:12:07;99741.75;;;20.65;89.55
72961;BME280;61141;46.204;19.774;2022-08-21T16:15:12;99729.84;;;20.64;89.19
72961;BME280;61141;46.204;19.774;2022-08-21T16:18:22;99744.78;;;20.58;90.62
72961;BME280;61141;46.204;19.774;2022-08-21T16:21:25;99748.28;;;20.71;89.56
72961;BME280;61141;46.204;19.774;2022-08-21T16:24:28;99740.13;;;20.76;88.25
72961;BME280;61141;46.204;19.774;2022-08-21T16:27:32;99744.16;;;20.75;89.00
72961;BME280;61141;46.204;19.774;2022-08-21T16:30:37;99750.09;;;20.65;88.50
72961;BME280;61141;46.204;19.774;2022-08-21T16:33:43;99730.81;;;20.70;88.85
72961;BME280;61141;46.204;19.774;2022-08-21T16:36:48;99743.47;;;20.49;90.12
72961;BME280;61141;46.204;19.774;2022-08-21T16:39:51;99741.22;;;20.57;89.50
72961;BME280;61141;46.204;19.774;2022-08-21T16:42:55;99745.91;;;20.26;89.11
72961;BME280;61141;46.204;19.774;2022-08-21T16:45:58;99739.38;;;20.41;88.32
72961;BME280;61141;46.204;19.774;2022-08-21T16:49:03;99746.12;;;20.53;88.30
72961;BME280;61141;46.204;19.774;2022-08-21T16:52:06;99738.25;;;20.52;87.83
72961;BME280;61141;46.204;19.774;2022-08-21T16:55:09;99741.09;;;20.61;87.20
72961;BME280;61141;46.204;19.774;2022-08-21T16:58:38;99742.97;;;20.64;88.53
72961;BME280;61141;46.204;19.774;2022-08-21T17:01:42;99757.34;;;20.62;88.37
72961;BME280;61141;46.204;19.774;2022-08-21T17:04:45;99756.31;;;20.69;88.50
72961;BME280;61141;46.204;19.774;2022-08-21T17:07:48;99759.22;;;20.65;89.40
72961;BME280;61141;46.204;19.774;2022-08-21T17:10:51;99749.91;;;20.59;89.77
72961;BME280;61141;46.204;19.774;2022-08-21T17:13:56;99769.91;;;20.67;89.84